Time;durP1;ratioP1;P1;durP2;ratioP2;P2;SDS_P1;SDS_P2;PMS_P1;PMS_P2;Temp;Humidity;BMP_temperature;BMP_pressure;BME280_temperature;BME280_humidity;BME280_pressure;Samples;Min_cycle;Max_cycle;Signal;HPM_P1;HPM_P2
2023/09/25 00:01:09;;;;;;;14.27;4.53;;;;;;;22.39;78.80;94681.59;5152477;27;20191;-46
2023/09/25 00:03:36;;;;;;;11.88;4.28;;;;;;;22.36;78.71;94682.03;5132812;27;20196;-44
2023/09/25 00:06:04;;;;;;;14.43;4.65;;;;;;;22.40;78.52;94691.00;5131495;27;20270;-46
2023/09/25 00:08:31;;;;;;;11.88;4.90;;;;;;;22.36;78.97;94676.00;5163780;27;20218;-45
2023/09/25 00:10:59;;;;;;;9.40;4.20;;;;;;;22.31;78.75;94678.47;5173148;27;20240;-44
2023/09/25 00:13:26;;;;;;;10.82;4.43;;;;;;;22.28;78.46;94684.91;5173101;27;20183;-46
2023/09/25 00:15:52;;;;;;;12.20;4.40;;;;;;;22.27;78.46;94689.28;5172891;27;20235;-45
2023/09/25 00:18:19;;;;;;;14.48;4.32;;;;;;;22.27;78.24;94686.69;5173270;27;20191;-45
2023/09/25 00:20:46;;;;;;;14.55;4.40;;;;;;;22.18;77.88;94680.13;5172494;27;20187;-45
2023/09/25 00:23:13;;;;;;;20.13;5.18;;;;;;;22.22;77.66;94689.13;5152134;27;20255;-44
2023/09/25 00:25:39;;;;;;;8.57;4.43;;;;;;;22.20;77.50;94678.13;5151731;27;20656;-44
2023/09/25 00:28:08;;;;;;;10.93;4.60;;;;;;;22.20;77.63;94679.94;5152303;27;20567;-43
2023/09/25 00:30:35;;;;;;;14.55;4.45;;;;;;;22.22;77.83;94678.72;5152132;27;20254;-46
2023/09/25 00:33:01;;;;;;;12.35;4.55;;;;;;;21.78;78.01;94604.81;5151800;27;20274;-44
2023/09/25 00:35:28;;;;;;;10.15;4.78;;;;;;;22.21;78.47;94682.31;5151354;27;20296;-46
2023/09/25 00:37:55;;;;;;;7.25;3.90;;;;;;;22.18;79.09;94672.31;5152032;27;20195;-46
2023/09/25 00:40:24;;;;;;;8.35;4.53;;;;;;;22.10;79.28;94679.56;5151751;27;20616;-46
2023/09/25 00:42:53;;;;;;;9.07;4.50;;;;;;;22.10;79.01;94685.56;5151635;27;20192;-46
2023/09/25 00:45:22;;;;;;;11.65;5.07;;;;;;;22.12;79.53;94683.59;5152560;27;20648;-45
2023/09/25 00:47:51;;;;;;;7.03;4.45;;;;;;;22.08;79.54;94686.78;5165760;27;20575;-46
2023/09/25 00:50:18;;;;;;;10.20;4.53;;;;;;;21.96;80.39;94679.63;5171510;27;20285;-44
2023/09/25 00:52:46;;;;;;;6.60;4.20;;;;;;;21.87;80.58;94691.28;5172450;27;20223;-46
2023/09/25 00:55:14;;;;;;;6.78;4.55;;;;;;;21.80;81.19;94693.13;5172591;27;20211;-46
2023/09/25 00:57:42;;;;;;;10.27;4.80;;;;;;;21.79;81.26;94694.13;5155323;27;20187;-45
2023/09/25 01:00:11;;;;;;;5.32;3.92;;;;;;;21.74;81.65;94680.94;5151323;27;20184;-45
2023/09/25 01:02:40;;;;;;;11.90;4.30;;;;;;;21.66;81.84;94688.97;5150442;27;20187;-45
2023/09/25 01:05:09;;;;;;;13.70;5.45;;;;;;;21.66;81.62;94681.97;5151574;27;20564;-44
2023/09/25 01:07:36;;;;;;;8.98;4.68;;;;;;;21.60;82.21;94682.81;5170437;27;20183;-45
2023/09/25 01:10:09;;;;;;;10.60;4.82;;;;;;;21.57;81.83;94685.00;5153804;27;20183;-44
2023/09/25 01:12:37;;;;;;;11.10;5.20;;;;;;;21.55;81.94;94682.63;5150951;27;20190;-45
2023/09/25 01:15:04;;;;;;;13.75;4.95;;;;;;;21.56;81.72;94688.63;5151017;27;20253;-46
2023/09/25 01:17:32;;;;;;;8.27;4.38;;;;;;;21.54;81.96;94697.44;5150868;27;20505;-46
2023/09/25 01:20:02;;;;;;;6.47;4.65;;;;;;;21.48;82.54;94698.25;5154393;27;20195;-47
2023/09/25 01:22:30;;;;;;;12.20;5.65;;;;;;;21.44;82.53;94697.06;5171721;27;20182;-45
2023/09/25 01:24:57;;;;;;;12.23;5.22;;;;;;;21.38;83.35;94684.88;5171903;27;20266;-45
2023/09/25 01:27:23;;;;;;;17.08;4.50;;;;;;;21.35;83.43;94692.28;5171449;27;20233;-46
2023/09/25 01:29:50;;;;;;;10.30;4.68;;;;;;;21.17;83.90;94672.88;5170039;27;20194;-45
2023/09/25 01:32:17;;;;;;;12.50;5.07;;;;;;;21.25;84.14;94690.09;5155384;27;20681;-45
2023/09/25 01:34:44;;;;;;;10.27;4.25;;;;;;;21.23;83.99;94700.66;5150728;27;20219;-45
2023/09/25 01:37:11;;;;;;;14.68;5.50;;;;;;;21.18;84.25;94697.09;5150426;27;20720;-45
2023/09/25 01:39:40;;;;;;;7.40;4.90;;;;;;;21.15;84.56;94700.88;5151014;27;20179;-45
2023/09/25 01:42:07;;;;;;;12.38;4.65;;;;;;;21.13;84.80;94704.69;5152975;27;20179;-46
2023/09/25 01:44:34;;;;;;;8.93;4.18;;;;;;;21.05;84.74;94701.31;5150763;27;20601;-44
2023/09/25 01:47:01;;;;;;;9.57;4.40;;;;;;;21.04;83.06;94698.91;5150763;27;20199;-45
2023/09/25 01:49:29;;;;;;;7.93;4.30;;;;;;;21.01;83.01;94697.50;5150415;27;20199;-46
2023/09/25 01:51:56;;;;;;;10.00;4.93;;;;;;;21.01;82.35;94688.91;5151995;27;20240;-45
2023/09/25 01:54:23;;;;;;;7.28;3.70;;;;;;;21.03;80.49;94695.53;5170879;27;20215;-46
2023/09/25 01:56:51;;;;;;;12.45;4.32;;;;;;;20.98;80.27;94687.53;5171441;27;20197;-46
2023/09/25 01:59:17;;;;;;;13.40;4.75;;;;;;;21.02;81.40;94695.69;5171350;27;20183;-44
2023/09/25 02:01:44;;;;;;;13.70;4.25;;;;;;;21.02;81.81;94703.50;5170021;27;20610;-44
2023/09/25 02:04:11;;;;;;;11.25;4.28;;;;;;;20.97;80.74;94701.50;5170989;27;20511;-45
2023/09/25 02:06:38;;;;;;;10.52;4.20;;;;;;;20.97;80.54;94706.72;5160634;27;20558;-46
2023/09/25 02:09:05;;;;;;;13.23;4.60;;;;;;;20.98;80.49;94713.53;5151331;27;20179;-45
2023/09/25 02:11:31;;;;;;;9.55;4.30;;;;;;;20.93;80.08;94717.72;5151231;27;20637;-44
2023/09/25 02:14:00;;;;;;;7.32;4.00;;;;;;;20.86;80.08;94722.94;5154304;27;20629;-46
2023/09/25 02:16:26;;;;;;;10.38;4.32;;;;;;;20.89;79.85;94722.50;5154974;27;20582;-45
2023/09/25 02:18:53;;;;;;;10.43;4.05;;;;;;;20.87;80.09;94719.31;5154489;27;20252;-45
2023/09/25 02:21:20;;;;;;;8.68;3.72;;;;;;;20.82;80.77;94723.53;5164073;27;20193;-44
2023/09/25 02:23:47;;;;;;;5.10;3.33;;;;;;;20.83;81.25;94723.31;5173776;27;20183;-45
2023/09/25 02:26:14;;;;;;;7.35;4.10;;;;;;;20.75;81.29;94713.91;5157304;27;20243;-46
2023/09/25 02:28:41;;;;;;;9.27;4.20;;;;;;;20.72;81.51;94718.72;5154251;27;20191;-46
2023/09/25 02:31:09;;;;;;;8.25;4.75;;;;;;;20.56;81.39;94704.31;5154260;27;20187;-44
2023/09/25 02:33:35;;;;;;;7.72;4.25;;;;;;;20.63;81.33;94720.69;5154178;27;20198;-47
2023/09/25 02:36:06;;;;;;;7.75;3.65;;;;;;;20.65;80.97;94729.13;5164187;27;20262;-46
2023/09/25 02:38:33;;;;;;;7.20;3.70;;;;;;;20.63;80.31;94725.91;5175122;27;20205;-44
2023/09/25 02:41:00;;;;;;;13.88;4.07;;;;;;;20.70;80.33;94733.72;5174761;27;20205;-43
2023/09/25 02:43:27;;;;;;;5.85;3.83;;;;;;;20.68;80.22;94731.31;5174871;27;20174;-47
2023/09/25 02:45:55;;;;;;;5.57;4.10;;;;;;;20.65;80.95;94743.91;5165503;27;20720;-45
2023/09/25 02:48:23;;;;;;;11.55;4.10;;;;;;;20.61;81.46;94734.91;5157064;27;20639;-46
2023/09/25 02:50:50;;;;;;;5.07;4.20;;;;;;;20.51;81.85;94743.09;5153700;27;20623;-44
2023/09/25 02:53:17;;;;;;;5.25;4.32;;;;;;;20.32;82.19;94720.44;5153600;27;20688;-46
2023/09/25 02:55:49;;;;;;;7.40;4.20;;;;;;;20.45;82.34;94736.84;5158540;27;20199;-46
2023/09/25 02:58:15;;;;;;;7.13;4.10;;;;;;;20.40;82.42;94743.63;5159229;27;20307;-45
2023/09/25 03:00:42;;;;;;;9.60;4.60;;;;;;;20.35;82.75;94751.22;5153683;27;20183;-46
2023/09/25 03:03:09;;;;;;;9.80;4.65;;;;;;;20.32;82.80;94743.81;5153348;27;20259;-46
2023/09/25 03:05:37;;;;;;;5.47;4.13;;;;;;;20.32;82.77;94743.81;5153582;27;20191;-45
2023/09/25 03:08:04;;;;;;;5.22;4.68;;;;;;;20.30;83.04;94749.22;5161603;27;20191;-44
2023/09/25 03:10:31;;;;;;;6.45;4.65;;;;;;;20.24;83.12;94739.59;5174835;27;20195;-45
2023/09/25 03:12:58;;;;;;;8.77;5.30;;;;;;;20.21;83.17;94755.59;5174103;27;20195;-44
2023/09/25 03:15:25;;;;;;;7.47;5.43;;;;;;;20.15;83.22;94756.34;5174261;27;20229;-45
2023/09/25 03:17:52;;;;;;;6.25;4.50;;;;;;;20.22;83.28;94757.97;5172156;27;20193;-46
2023/09/25 03:20:19;;;;;;;6.90;5.00;;;;;;;20.21;83.44;94761.59;5173663;27;20640;-46
2023/09/25 03:22:47;;;;;;;10.75;5.15;;;;;;;20.23;83.50;94769.97;5173819;27;20746;-45
2023/09/25 03:25:15;;;;;;;7.75;4.95;;;;;;;20.21;83.25;94774.56;5173334;27;20191;-46
2023/09/25 03:27:43;;;;;;;8.35;5.15;;;;;;;20.18;81.98;94777.53;5171781;27;20711;-45
2023/09/25 03:30:11;;;;;;;11.05;5.90;;;;;;;20.22;81.53;94768.38;5161856;27;20187;-45
2023/09/25 03:32:38;;;;;;;6.72;5.10;;;;;;;20.15;81.61;94764.94;5162916;27;20186;-46
2023/09/25 03:35:05;;;;;;;9.93;5.47;;;;;;;20.24;80.90;94779.34;5173473;27;20220;-45
2023/09/25 03:37:33;;;;;;;7.85;5.60;;;;;;;20.08;81.21;94745.13;5173831;27;20700;-45
2023/09/25 03:40:01;;;;;;;6.38;5.50;;;;;;;20.27;81.42;94785.97;5167804;27;20198;-44
2023/09/25 03:42:28;;;;;;;8.50;6.30;;;;;;;20.28;81.01;94777.16;5173866;27;20225;-46
2023/09/25 03:44:54;;;;;;;10.25;5.95;;;;;;;20.28;80.76;94784.97;5173354;27;20565;-46
2023/09/25 03:47:21;;;;;;;9.38;6.72;;;;;;;20.29;80.68;94789.97;5166673;27;20191;-46
2023/09/25 03:49:48;;;;;;;8.48;6.55;;;;;;;20.32;80.96;94786.16;5153627;27;20180;-43
2023/09/25 03:52:14;;;;;;;10.40;7.40;;;;;;;20.25;81.57;94777.53;5169578;27;20692;-44
2023/09/25 03:54:41;;;;;;;12.38;8.63;;;;;;;20.27;82.32;94791.16;5173210;27;20675;-45
2023/09/25 03:57:09;;;;;;;13.73;8.35;;;;;;;20.27;82.76;94791.16;5173262;27;20575;-44
2023/09/25 03:59:36;;;;;;;13.10;8.50;;;;;;;20.27;82.75;94784.16;5172875;27;20204;-44
2023/09/25 04:02:03;;;;;;;16.38;9.90;;;;;;;20.29;83.43;94778.75;5172239;27;20175;-45
2023/09/25 04:04:30;;;;;;;12.13;9.45;;;;;;;20.24;84.36;94778.56;5173044;27;20203;-45
2023/09/25 04:06:56;;;;;;;14.75;10.00;;;;;;;20.20;84.46;94770.34;5173208;27;20187;-44
2023/09/25 04:09:23;;;;;;;17.35;9.93;;;;;;;20.27;84.83;94780.78;5172990;27;20193;-44
2023/09/25 04:11:50;;;;;;;14.43;11.25;;;;;;;20.25;85.33;94782.75;5159748;27;20258;-45
2023/09/25 04:14:18;;;;;;;15.35;11.23;;;;;;;20.19;86.22;94781.72;5152000;27;20184;-45
2023/09/25 04:16:45;;;;;;;14.70;11.80;;;;;;;20.15;86.61;94785.72;5152762;27;20680;-44
2023/09/25 04:19:12;;;;;;;12.07;10.63;;;;;;;20.13;86.99;94794.72;5152141;27;20191;-44
2023/09/25 04:21:39;;;;;;;16.05;9.93;;;;;;;20.14;86.99;94788.50;5159886;27;20179;-44
2023/09/25 04:24:10;;;;;;;12.95;10.35;;;;;;;20.07;87.63;94785.88;5172307;27;20191;-44
2023/09/25 04:26:39;;;;;;;16.33;10.63;;;;;;;20.00;88.67;94788.47;5172450;27;20283;-45
2023/09/25 04:29:09;;;;;;;16.63;10.65;;;;;;;19.14;88.94;94653.13;5172910;27;20214;-46
2023/09/25 04:31:38;;;;;;;20.05;11.48;;;;;;;20.08;88.76;94799.66;5163238;27;20201;-45
2023/09/25 04:34:05;;;;;;;20.08;11.70;;;;;;;20.15;88.65;94803.09;5130936;27;20192;-48
2023/09/25 04:36:32;;;;;;;15.38;10.23;;;;;;;20.15;89.15;94808.28;5129588;27;20212;-46
2023/09/25 04:38:59;;;;;;;12.48;10.40;;;;;;;20.16;89.24;94805.47;5131420;27;20184;-45
2023/09/25 04:41:26;;;;;;;14.55;10.80;;;;;;;20.19;89.01;94805.09;5134895;27;20188;-46
2023/09/25 04:43:53;;;;;;;19.02;10.88;;;;;;;20.17;89.13;94808.91;5151870;27;20184;-46
2023/09/25 04:46:20;;;;;;;12.40;9.38;;;;;;;20.03;89.46;94806.25;5152716;27;20275;-45
2023/09/25 04:48:51;;;;;;;10.48;8.68;;;;;;;20.01;89.53;94817.81;5151690;27;20252;-44
2023/09/25 04:51:19;;;;;;;15.35;9.70;;;;;;;19.96;89.92;94815.00;5151272;27;20223;-46
2023/09/25 04:53:46;;;;;;;14.52;9.65;;;;;;;19.92;90.50;94824.97;5157597;27;20220;-45
2023/09/25 04:56:20;;;;;;;13.80;9.48;;;;;;;19.85;90.62;94818.13;5172350;27;20206;-44
2023/09/25 04:58:46;;;;;;;18.80;10.27;;;;;;;19.82;91.17;94815.91;5159022;27;20659;-44
2023/09/25 05:01:13;;;;;;;15.00;10.05;;;;;;;19.77;91.24;94812.13;5172131;27;20234;-45
2023/09/25 05:03:41;;;;;;;10.13;8.77;;;;;;;19.70;91.61;94813.88;5172258;27;20186;-44
2023/09/25 05:06:11;;;;;;;13.90;9.37;;;;;;;19.68;91.86;94818.44;5172062;27;20190;-44
2023/09/25 05:08:38;;;;;;;16.42;10.38;;;;;;;19.62;92.29;94816.59;5172008;27;20216;-44
2023/09/25 05:11:05;;;;;;;14.68;9.98;;;;;;;19.61;92.94;94814.22;5171992;27;20278;-45
2023/09/25 05:13:32;;;;;;;13.45;11.10;;;;;;;19.63;93.01;94817.41;5171613;27;20233;-45
2023/09/25 05:15:59;;;;;;;13.63;11.07;;;;;;;19.60;93.61;94823.72;5171926;27;20245;-44
2023/09/25 05:18:27;;;;;;;14.03;11.33;;;;;;;19.58;93.85;94830.13;5171587;27;20197;-44
2023/09/25 05:20:54;;;;;;;13.30;11.37;;;;;;;19.53;94.53;94833.28;5171767;27;20197;-45
2023/09/25 05:23:22;;;;;;;14.10;11.20;;;;;;;19.48;94.60;94823.47;5171933;27;20187;-45
2023/09/25 05:25:49;;;;;;;13.70;10.75;;;;;;;19.54;94.73;94830.50;5171656;27;20722;-45
2023/09/25 05:28:16;;;;;;;11.85;10.57;;;;;;;19.47;94.92;94834.84;5171789;27;20194;-45
2023/09/25 05:30:43;;;;;;;12.73;10.45;;;;;;;19.46;95.08;94827.25;5171823;27;20175;-46
2023/09/25 05:33:10;;;;;;;17.77;11.17;;;;;;;19.41;95.08;94829.59;5171584;27;20559;-47
2023/09/25 05:35:36;;;;;;;16.87;11.43;;;;;;;19.50;94.52;94834.47;5171588;27;20227;-45
2023/09/25 05:38:03;;;;;;;16.40;10.50;;;;;;;19.51;94.27;94846.44;5171946;27;20191;-44
2023/09/25 05:40:31;;;;;;;15.48;10.38;;;;;;;19.52;94.13;94852.44;5171604;27;20195;-44
2023/09/25 05:42:58;;;;;;;15.88;11.68;;;;;;;19.55;93.80;94858.03;5171890;27;20231;-44
2023/09/25 05:45:25;;;;;;;15.45;10.95;;;;;;;19.57;93.42;94860.47;5171329;27;20195;-44
2023/09/25 05:47:52;;;;;;;11.60;9.30;;;;;;;19.51;93.23;94849.03;5172927;27;20198;-44
2023/09/25 05:50:18;;;;;;;16.67;10.45;;;;;;;19.68;92.65;94869.53;5175576;27;20198;-43
2023/09/25 05:52:46;;;;;;;14.40;10.00;;;;;;;19.72;92.39;94865.56;5176067;27;20510;-46
2023/09/25 05:55:13;;;;;;;12.40;9.93;;;;;;;19.78;92.14;94867.41;5176020;27;20182;-45
2023/09/25 05:57:41;;;;;;;12.85;9.75;;;;;;;19.92;91.69;94878.69;5176394;27;20182;-46
2023/09/25 06:00:12;;;;;;;13.30;9.27;;;;;;;20.01;91.30;94870.53;5175724;27;20590;-45
2023/09/25 06:02:39;;;;;;;10.77;8.93;;;;;;;20.21;90.55;94880.25;5175805;27;20601;-45
2023/09/25 06:05:07;;;;;;;18.58;10.63;;;;;;;20.33;90.16;94875.28;5175312;27;20195;-45
2023/09/25 06:07:36;;;;;;;18.83;10.80;;;;;;;20.56;89.60;94890.63;5175828;27;20236;-46
2023/09/25 06:10:04;;;;;;;12.18;10.70;;;;;;;20.66;88.76;94884.03;5175288;27;20644;-45
2023/09/25 06:12:31;;;;;;;13.38;10.60;;;;;;;20.83;88.14;94879.28;5175557;27;20191;-44
2023/09/25 06:14:59;;;;;;;14.68;12.18;;;;;;;21.05;87.12;94883.34;5175444;27;20676;-45
2023/09/25 06:17:26;;;;;;;13.85;10.68;;;;;;;21.27;85.99;94881.34;5175551;27;20206;-45
2023/09/25 06:19:54;;;;;;;13.00;11.02;;;;;;;21.50;85.25;94886.22;5174994;27;20194;-45
2023/09/25 06:22:21;;;;;;;15.48;10.35;;;;;;;21.65;84.24;94869.59;5175161;27;20190;-44
2023/09/25 06:24:49;;;;;;;16.40;10.30;;;;;;;21.95;83.09;94885.56;5175557;27;20211;-44
2023/09/25 06:27:15;;;;;;;14.95;11.55;;;;;;;21.89;82.35;94873.34;5174816;27;20261;-45
2023/09/25 06:29:42;;;;;;;14.52;10.90;;;;;;;22.06;82.07;94892.75;5175615;27;20219;-45
2023/09/25 06:32:11;;;;;;;13.48;11.75;;;;;;;21.89;81.82;94858.56;5174916;27;20187;-48
2023/09/25 06:34:38;;;;;;;12.25;10.68;;;;;;;22.22;81.83;94904.56;5175357;27;20210;-46
2023/09/25 06:37:06;;;;;;;14.35;10.85;;;;;;;22.31;81.25;94905.94;5174874;27;20219;-44
2023/09/25 06:39:34;;;;;;;12.68;11.35;;;;;;;22.33;80.88;94901.34;5175117;27;20193;-46
2023/09/25 06:42:00;;;;;;;13.68;10.90;;;;;;;22.45;80.47;94907.53;5174772;27;20271;-44
2023/09/25 06:44:27;;;;;;;14.27;11.00;;;;;;;22.60;79.56;94916.88;5174804;27;20707;-46
2023/09/25 06:46:54;;;;;;;13.25;11.40;;;;;;;22.65;79.52;94917.88;5175006;27;20570;-45
2023/09/25 06:49:23;;;;;;;14.27;11.80;;;;;;;22.81;78.85;94921.81;5174494;27;20194;-45
2023/09/25 06:51:49;;;;;;;13.80;11.48;;;;;;;22.95;78.25;94919.97;5174764;27;20650;-46
2023/09/25 06:54:17;;;;;;;19.52;10.70;;;;;;;23.03;77.42;94917.13;5174628;27;20639;-45
2023/09/25 06:56:44;;;;;;;17.52;11.98;;;;;;;23.25;76.59;94921.00;5174435;27;20218;-46
2023/09/25 06:59:10;;;;;;;13.57;10.95;;;;;;;23.50;76.07;94915.81;5173420;27;20632;-45
2023/09/25 07:01:37;;;;;;;12.65;11.10;;;;;;;23.91;74.83;94924.16;5174667;27;20191;-46
2023/09/25 07:04:04;;;;;;;13.18;11.55;;;;;;;24.33;72.82;94925.16;5174276;27;20231;-45
2023/09/25 07:06:33;;;;;;;13.68;11.23;;;;;;;24.71;71.09;94927.56;5174544;27;20195;-47
2023/09/25 07:09:02;;;;;;;12.65;11.25;;;;;;;24.92;69.57;94925.50;5174278;27;20210;-45
2023/09/25 07:11:29;;;;;;;13.05;11.05;;;;;;;25.35;68.50;94930.59;5174471;27;20191;-45
2023/09/25 07:13:56;;;;;;;12.85;11.52;;;;;;;25.64;66.40;94933.38;5174471;27;20262;-46
2023/09/25 07:16:23;;;;;;;15.75;11.38;;;;;;;25.80;65.93;94918.84;5174322;27;20270;-47
2023/09/25 07:18:50;;;;;;;16.98;12.15;;;;;;;25.95;64.16;94927.88;5173579;27;20187;-46
2023/09/25 07:21:16;;;;;;;14.05;11.45;;;;;;;26.18;63.39;94928.88;5174409;27;20179;-46
2023/09/25 07:23:45;;;;;;;12.52;10.65;;;;;;;26.41;61.26;94928.84;5173696;27;20195;-45
2023/09/25 07:26:15;;;;;;;16.27;11.10;;;;;;;26.52;60.60;94941.19;5174046;27;20703;-45
2023/09/25 07:28:42;;;;;;;14.93;11.60;;;;;;;26.63;59.29;94923.81;5174310;27;20256;-47
2023/09/25 07:31:09;;;;;;;12.05;9.43;;;;;;;26.60;58.73;94931.34;5174018;27;20190;-47
2023/09/25 07:33:35;;;;;;;15.38;10.65;;;;;;;26.49;58.42;94922.50;5173937;27;20301;-46
2023/09/25 07:36:03;;;;;;;12.50;9.20;;;;;;;26.56;57.24;94933.66;5173974;27;20262;-46
2023/09/25 07:38:30;;;;;;;16.25;9.63;;;;;;;26.44;57.24;94936.28;5174203;27;20179;-46
2023/09/25 07:40:58;;;;;;;14.43;11.15;;;;;;;26.36;58.16;94931.38;5173812;27;20278;-47
2023/09/25 07:43:28;;;;;;;16.23;10.27;;;;;;;26.16;58.89;94944.03;5173925;27;20251;-45
2023/09/25 07:45:55;;;;;;;12.18;10.85;;;;;;;26.06;59.55;94936.75;5173564;27;20549;-46
2023/09/25 07:48:22;;;;;;;14.60;11.93;;;;;;;25.98;60.40;94944.94;5173441;27;20676;-46
2023/09/25 07:50:50;;;;;;;14.10;12.00;;;;;;;25.91;60.48;94931.97;5173303;27;20194;-46
2023/09/25 07:53:16;;;;;;;13.27;11.18;;;;;;;25.96;60.69;94947.00;5173909;27;20183;-45
2023/09/25 07:55:43;;;;;;;17.67;11.15;;;;;;;25.86;60.40;94946.75;5173282;27;20190;-46
2023/09/25 07:58:12;;;;;;;12.90;11.60;;;;;;;25.76;60.38;94944.66;5173456;27;20187;-45
2023/09/25 08:00:44;;;;;;;14.70;12.60;;;;;;;25.82;60.96;94948.22;5172846;27;20649;-45
2023/09/25 08:03:15;;;;;;;14.93;10.73;;;;;;;25.63;60.55;94952.72;5173467;27;20564;-44
2023/09/25 08:05:42;;;;;;;12.65;10.75;;;;;;;25.25;61.15;94944.19;5173047;27;20190;-44
2023/09/25 08:08:10;;;;;;;10.63;9.20;;;;;;;25.13;60.76;94948.63;5173049;27;20643;-44
2023/09/25 08:10:37;;;;;;;12.15;10.32;;;;;;;24.92;61.16;94934.16;5172402;27;20226;-45
2023/09/25 08:13:05;;;;;;;11.73;9.43;;;;;;;24.95;60.59;94928.47;5173065;27;20227;-45
2023/09/25 08:15:34;;;;;;;9.68;8.45;;;;;;;25.01;59.56;94929.41;5173005;27;20199;-44
2023/09/25 08:18:00;;;;;;;9.07;6.78;;;;;;;25.01;58.86;94938.06;5173138;27;20715;-46
2023/09/25 08:20:27;;;;;;;8.82;7.18;;;;;;;25.02;58.02;94925.78;5172665;27;20191;-46
2023/09/25 08:22:54;;;;;;;9.57;7.30;;;;;;;25.09;58.55;94920.50;5173040;27;20674;-45
2023/09/25 08:25:22;;;;;;;9.60;7.68;;;;;;;25.12;58.53;94926.06;5173007;27;20274;-45
2023/09/25 08:27:51;;;;;;;8.13;6.47;;;;;;;25.10;58.04;94919.47;5172698;27;20691;-45
2023/09/25 08:30:18;;;;;;;8.70;6.80;;;;;;;24.98;58.10;94929.84;5173125;27;20187;-46
2023/09/25 08:32:46;;;;;;;8.25;7.10;;;;;;;24.93;58.51;94924.47;5172589;27;20596;-47
2023/09/25 08:35:13;;;;;;;10.35;7.65;;;;;;;24.94;59.01;94932.09;5172416;27;20702;-45
2023/09/25 08:37:40;;;;;;;6.70;5.97;;;;;;;24.97;57.94;94930.88;5172525;27;20222;-45
2023/09/25 08:40:09;;;;;;;11.02;6.90;;;;;;;25.20;57.02;94928.38;5172539;27;20186;-46
2023/09/25 08:42:37;;;;;;;7.97;6.50;;;;;;;25.28;57.32;94924.63;5172363;27;20194;-46
2023/09/25 08:45:05;;;;;;;7.30;6.53;;;;;;;25.34;57.31;94934.22;5172553;27;20179;-44
2023/09/25 08:47:34;;;;;;;9.15;6.38;;;;;;;25.29;57.18;94931.47;5172304;27;20179;-46
2023/09/25 08:50:03;;;;;;;7.18;6.30;;;;;;;25.15;56.59;94923.00;5172617;27;20376;-45
2023/09/25 08:52:31;;;;;;;8.20;5.43;;;;;;;25.00;57.25;94931.25;5172348;27;20944;-46
2023/09/25 08:54:59;;;;;;;7.28;6.05;;;;;;;24.77;57.39;94913.59;5172272;27;20197;-46
2023/09/25 08:57:26;;;;;;;7.00;5.65;;;;;;;24.70;57.67;94927.81;5172051;27;20227;-46
2023/09/25 08:59:52;;;;;;;5.50;4.68;;;;;;;24.59;57.79;94926.69;5172617;27;20191;-47
2023/09/25 09:02:20;;;;;;;7.00;4.78;;;;;;;24.64;57.27;94932.06;5172247;27;20187;-46
2023/09/25 09:04:47;;;;;;;8.93;4.65;;;;;;;24.67;57.55;94926.41;5172296;27;20191;-45
2023/09/25 09:07:15;;;;;;;4.90;4.40;;;;;;;24.68;57.71;94922.78;5172120;27;20258;-45
2023/09/25 09:09:43;;;;;;;8.13;5.18;;;;;;;24.51;57.98;94922.56;5172021;27;20247;-45
2023/09/25 09:12:10;;;;;;;5.75;5.22;;;;;;;24.49;58.38;94926.44;5172397;27;20224;-46
2023/09/25 09:14:39;;;;;;;6.07;4.32;;;;;;;24.45;58.80;94920.81;5172157;27;20183;-46
2023/09/25 09:17:06;;;;;;;6.40;4.88;;;;;;;24.39;58.76;94926.13;5172196;27;20215;-45
2023/09/25 09:19:50;;;;;;;10.40;4.78;;;;;;;24.31;59.18;94928.97;5172025;27;20191;-47
2023/09/25 09:22:21;;;;;;;7.70;4.78;;;;;;;24.12;59.50;94902.84;5170833;27;20191;-44
2023/09/25 09:24:51;;;;;;;5.15;4.65;;;;;;;23.94;60.05;94884.53;5171714;27;20652;-46
2023/09/25 09:27:20;;;;;;;5.30;4.50;;;;;;;24.18;59.87;94922.91;5171714;27;20721;-46
2023/09/25 09:29:49;;;;;;;8.27;4.72;;;;;;;24.23;59.89;94922.25;5171858;27;20220;-45
2023/09/25 09:32:16;;;;;;;5.28;4.38;;;;;;;24.25;59.87;94922.81;5172050;27;20221;-46
2023/09/25 09:34:43;;;;;;;5.35;4.50;;;;;;;24.23;59.00;94923.03;5171437;27;20256;-45
2023/09/25 09:37:12;;;;;;;9.90;4.63;;;;;;;24.28;59.37;94936.25;5171434;27;20203;-46
2023/09/25 09:39:45;;;;;;;10.57;4.25;;;;;;;24.29;58.71;94923.97;5171613;27;20262;-46
2023/09/25 09:42:14;;;;;;;7.65;4.32;;;;;;;24.35;59.11;94927.53;5171899;27;20527;-47
2023/09/25 09:44:41;;;;;;;4.30;3.92;;;;;;;24.07;58.61;94892.25;5171410;27;20187;-47
2023/09/25 09:47:09;;;;;;;6.65;5.32;;;;;;;24.23;59.32;94898.72;5171928;27;20187;-44
2023/09/25 09:49:37;;;;;;;5.38;4.70;;;;;;;24.57;58.69;94928.75;5171496;27;20199;-44
2023/09/25 09:52:05;;;;;;;9.77;4.25;;;;;;;24.71;57.64;94917.09;5171498;27;20187;-45
2023/09/25 09:54:36;;;;;;;4.35;3.90;;;;;;;24.99;57.59;94913.13;5171385;27;20246;-46
2023/09/25 09:57:04;;;;;;;6.75;3.45;;;;;;;25.08;56.49;94932.75;5171344;27;20233;-46
2023/09/25 09:59:31;;;;;;;5.45;3.78;;;;;;;24.93;56.69;94924.47;5171575;27;20186;-46
2023/09/25 10:01:59;;;;;;;6.10;3.78;;;;;;;24.94;56.94;94918.22;5171749;27;20262;-45
2023/09/25 10:04:26;;;;;;;12.57;3.95;;;;;;;24.84;57.60;94928.44;5171408;27;20183;-45
2023/09/25 10:06:58;;;;;;;4.82;4.10;;;;;;;24.85;56.97;94927.41;5171630;27;20240;-46
2023/09/25 10:09:27;;;;;;;7.35;4.22;;;;;;;24.90;57.43;94920.47;5171433;27;20655;-47
2023/09/25 10:11:54;;;;;;;6.70;3.60;;;;;;;24.89;56.86;94931.97;5171950;27;20183;-45
2023/09/25 10:14:24;;;;;;;6.35;4.25;;;;;;;24.96;57.08;94918.81;5172536;27;20187;-47
2023/09/25 10:17:01;;;;;;;4.32;3.92;;;;;;;25.03;57.44;94929.97;5172047;27;20385;-46
2023/09/25 10:19:48;;;;;;;10.13;4.03;;;;;;;25.08;57.02;94906.59;5171542;27;20195;-46
2023/09/25 10:22:19;;;;;;;8.80;3.60;;;;;;;25.21;56.87;94921.31;5171779;27;20210;-46
2023/09/25 10:24:47;;;;;;;8.68;3.47;;;;;;;25.24;56.99;94918.25;5170889;27;20225;-46
2023/09/25 10:27:15;;;;;;;6.65;3.65;;;;;;;25.08;56.38;94893.50;5171162;27;20258;-47
2023/09/25 10:30:03;;;;;;;4.45;3.78;;;;;;;25.21;56.02;94911.63;5170819;27;20203;-46
2023/09/25 10:32:33;;;;;;;10.23;4.30;;;;;;;25.15;56.57;94894.22;5171138;27;20640;-45
2023/09/25 10:35:33;;;;;;;11.85;4.00;;;;;;;25.42;55.76;94912.94;5174017;27;20257;-46
2023/09/25 10:38:17;;;;;;;5.18;3.80;;;;;;;25.23;54.85;94909.59;5174579;27;20227;-46
2023/09/25 10:40:45;;;;;;;4.75;3.90;;;;;;;25.38;54.92;94911.00;5173174;27;20182;-45
2023/09/25 10:43:12;;;;;;;7.43;3.90;;;;;;;25.19;54.93;94890.13;5174769;27;20658;-45
2023/09/25 10:45:40;;;;;;;4.18;3.85;;;;;;;25.40;55.16;94906.34;5174917;27;20259;-46
2023/09/25 10:48:08;;;;;;;5.93;3.40;;;;;;;25.28;55.39;94896.63;5174650;27;20239;-46
2023/09/25 10:50:37;;;;;;;9.18;3.88;;;;;;;25.47;54.55;94913.06;5174924;27;20251;-45
2023/09/25 10:53:05;;;;;;;3.90;3.22;;;;;;;25.42;52.94;94917.38;5174586;27;20612;-45
2023/09/25 10:55:33;;;;;;;5.43;3.97;;;;;;;25.26;53.32;94918.84;5174799;27;20229;-46
2023/09/25 10:58:00;;;;;;;8.30;3.90;;;;;;;25.14;53.35;94926.66;5174546;27;21148;-46
2023/09/25 11:00:28;;;;;;;7.78;3.50;;;;;;;25.02;53.95;94912.69;5174404;27;20671;-46
2023/09/25 11:02:56;;;;;;;4.07;3.67;;;;;;;25.06;54.17;94906.00;5174520;27;20183;-45
2023/09/25 11:05:23;;;;;;;6.18;3.67;;;;;;;25.08;53.91;94914.44;5174352;27;20187;-45
2023/09/25 11:07:54;;;;;;;3.75;3.30;;;;;;;25.15;54.15;94920.38;5174538;27;20187;-46
2023/09/25 11:10:22;;;;;;;4.38;3.88;;;;;;;25.18;54.49;94913.91;5174521;27;20584;-47
2023/09/25 11:12:49;;;;;;;5.00;3.53;;;;;;;25.21;54.87;94916.88;5152234;27;20194;-45
2023/09/25 11:15:18;;;;;;;5.28;3.70;;;;;;;25.29;54.88;94915.75;5174331;27;20198;-46
2023/09/25 11:17:53;;;;;;;6.25;4.20;;;;;;;25.33;54.42;94918.72;5174020;27;20606;-47
2023/09/25 11:20:29;;;;;;;7.75;3.72;;;;;;;25.33;53.80;94903.81;5174132;27;20197;-46
2023/09/25 11:23:03;;;;;;;5.47;4.15;;;;;;;25.33;54.26;94901.19;5174275;27;20187;-47
2023/09/25 11:25:30;;;;;;;5.53;3.70;;;;;;;25.47;54.86;94920.13;5173710;27;20264;-46
2023/09/25 11:27:58;;;;;;;4.72;3.75;;;;;;;25.61;54.53;94923.34;5173929;27;20206;-45
2023/09/25 11:30:29;;;;;;;5.63;3.55;;;;;;;25.45;53.46;94901.22;5174393;27;20186;-46